createdAt,value
2022-08-25T00:01:39.061Z,2.53
2022-08-25T00:04:10.987Z,2.67
2022-08-25T00:06:40.951Z,2.03
2022-08-25T00:09:09.362Z,2.13
2022-08-25T00:11:38.030Z,3.72
2022-08-25T00:14:10.029Z,2.15
2022-08-25T00:16:37.448Z,2.50
2022-08-25T00:19:16.055Z,2.25
2022-08-25T00:21:43.873Z,2.40
2022-08-25T00:27:59.268Z,2.60
2022-08-25T00:30:26.435Z,2.70
2022-08-25T00:32:57.391Z,2.00
2022-08-25T00:35:25.990Z,2.00
2022-08-25T00:37:53.086Z,2.10
2022-08-25T00:40:20.442Z,2.13
2022-08-25T00:42:50.379Z,1.88
2022-08-25T00:50:14.505Z,2.00
2022-08-25T00:52:46.693Z,2.35
2022-08-25T00:55:21.947Z,2.08
2022-08-25T00:57:55.548Z,2.08
2022-08-25T01:00:25.284Z,1.90
2022-08-25T01:02:53.640Z,2.00
2022-08-25T01:05:21.471Z,2.25
2022-08-25T01:07:50.362Z,2.00
2022-08-25T01:10:20.998Z,2.40
2022-08-25T01:12:49.188Z,3.83
2022-08-25T01:15:17.138Z,2.03
2022-08-25T01:17:54.720Z,2.67
2022-08-25T01:20:29.277Z,2.10
2022-08-25T01:22:57.509Z,3.30
2022-08-25T01:25:38.753Z,4.07
2022-08-25T01:28:08.036Z,4.82
2022-08-25T01:30:36.531Z,3.42
2022-08-25T01:33:05.981Z,2.25
2022-08-25T01:35:33.446Z,2.55
2022-08-25T01:38:01.648Z,2.80
2022-08-25T01:40:29.067Z,2.40
2022-08-25T01:43:11.734Z,2.60
2022-08-25T01:57:02.843Z,2.83
2022-08-25T01:59:30.030Z,2.30
2022-08-25T02:01:59.837Z,2.95
2022-08-25T02:04:32.329Z,2.42
2022-08-25T02:07:01.579Z,2.20
2022-08-25T02:09:29.447Z,2.40
2022-08-25T02:11:56.932Z,2.08
2022-08-25T02:14:24.395Z,2.42
2022-08-25T02:16:54.412Z,2.40
2022-08-25T02:19:23.684Z,2.47
2022-08-25T02:21:51.029Z,2.88
2022-08-25T02:24:18.911Z,2.70
2022-08-25T02:26:46.201Z,2.53
2022-08-25T02:29:13.762Z,2.40
2022-08-25T02:31:40.976Z,2.50
2022-08-25T02:34:09.942Z,3.00
2022-08-25T02:36:38.427Z,2.50
2022-08-25T02:39:07.849Z,2.65
2022-08-25T02:41:35.443Z,2.47
2022-08-25T02:44:04.551Z,2.30
2022-08-25T02:47:28.278Z,2.55
2022-08-25T02:49:55.748Z,2.55
2022-08-25T02:52:22.743Z,2.60
2022-08-25T02:54:49.807Z,2.63
2022-08-25T02:57:18.065Z,2.40
2022-08-25T02:59:48.359Z,2.67
2022-08-25T03:02:16.885Z,2.45
2022-08-25T03:04:44.202Z,2.28
2022-08-25T03:07:11.461Z,2.58
2022-08-25T03:09:41.938Z,2.40
2022-08-25T03:12:09.624Z,2.50
2022-08-25T03:14:36.481Z,2.70
2022-08-25T03:17:04.102Z,2.70
2022-08-25T03:19:36.509Z,2.70
2022-08-25T03:22:03.563Z,2.33
2022-08-25T03:24:30.540Z,2.80
2022-08-25T03:26:57.697Z,2.45
2022-08-25T03:29:28.148Z,2.47
2022-08-25T03:31:58.451Z,2.47
2022-08-25T03:34:27.999Z,2.85
2022-08-25T03:36:55.979Z,2.65
2022-08-25T03:39:25.217Z,2.75
2022-08-25T03:41:53.000Z,2.80
2022-08-25T03:44:21.131Z,3.08
2022-08-25T03:47:47.317Z,2.88
2022-08-25T03:50:18.066Z,2.85
2022-08-25T03:52:46.029Z,2.88
2022-08-25T03:55:17.417Z,3.00
2022-08-25T03:57:44.344Z,3.10
2022-08-25T04:00:14.654Z,2.90
2022-08-25T04:02:42.687Z,2.90
2022-08-25T04:05:15.923Z,3.15
2022-08-25T04:07:42.828Z,2.90
2022-08-25T04:10:11.164Z,3.15
2022-08-25T04:12:42.773Z,3.05
2022-08-25T04:15:10.685Z,3.08
2022-08-25T04:17:39.899Z,3.05
2022-08-25T04:20:11.274Z,3.38
2022-08-25T04:22:41.375Z,3.20
2022-08-25T04:25:18.431Z,3.33
2022-08-25T04:27:45.330Z,4.10
2022-08-25T04:30:12.992Z,3.20
2022-08-25T04:32:40.067Z,3.75
2022-08-25T04:35:09.527Z,3.67
2022-08-25T04:37:37.499Z,3.35
2022-08-25T04:40:05.577Z,3.80
2022-08-25T04:42:32.700Z,3.70
2022-08-25T04:45:07.752Z,3.88
2022-08-25T04:48:31.465Z,3.95
2022-08-25T04:50:58.411Z,3.90
2022-08-25T04:53:25.252Z,4.00
2022-08-25T04:55:52.364Z,3.60
2022-08-25T04:58:21.154Z,4.10
2022-08-25T05:00:49.515Z,3.95
2022-08-25T05:03:17.480Z,3.97
2022-08-25T05:05:44.320Z,3.92
2022-08-25T05:08:11.234Z,3.75
2022-08-25T05:10:45.483Z,3.72
2022-08-25T05:13:12.547Z,3.63
2022-08-25T05:15:51.405Z,3.72
2022-08-25T05:18:20.262Z,3.70
2022-08-25T05:20:47.225Z,3.72
2022-08-25T05:23:21.123Z,3.83
2022-08-25T05:25:49.918Z,3.90
2022-08-25T05:28:18.420Z,3.75
2022-08-25T05:30:50.942Z,3.97
2022-08-25T05:33:18.593Z,3.90
2022-08-25T05:35:45.516Z,3.88
2022-08-25T05:38:17.851Z,3.65
2022-08-25T05:40:45.028Z,4.38
2022-08-25T05:43:14.812Z,4.18
2022-08-25T05:45:42.543Z,4.22
2022-08-25T05:56:23.256Z,4.45
2022-08-25T05:58:50.409Z,4.13
2022-08-25T06:01:58.378Z,5.28
2022-08-25T06:04:25.977Z,5.28
2022-08-25T06:07:00.696Z,6.13
2022-08-25T06:09:28.144Z,5.40
2022-08-25T06:12:51.810Z,5.30
2022-08-25T06:15:27.185Z,4.68
2022-08-25T06:18:50.797Z,4.95
2022-08-25T06:21:19.125Z,5.00
2022-08-25T06:23:46.356Z,4.47
2022-08-25T06:27:09.928Z,4.53
2022-08-25T06:29:43.420Z,5.15
2022-08-25T06:32:10.693Z,4.88
2022-08-25T06:34:50.724Z,4.78
2022-08-25T06:37:17.800Z,8.60
2022-08-25T06:39:44.863Z,7.35
2022-08-25T06:42:35.367Z,5.30
2022-08-25T06:45:02.793Z,5.28
2022-08-25T06:47:33.328Z,5.15
2022-08-25T06:50:06.064Z,5.03
2022-08-25T06:52:33.566Z,5.07
2022-08-25T06:55:06.527Z,5.18
2022-08-25T06:57:36.005Z,5.30
2022-08-25T07:00:08.707Z,5.20
2022-08-25T07:02:35.821Z,5.22
2022-08-25T07:05:04.606Z,5.03
2022-08-25T07:07:44.179Z,4.95
2022-08-25T07:10:13.012Z,4.97
2022-08-25T07:12:42.815Z,5.70
2022-08-25T07:15:20.762Z,6.70
2022-08-25T07:17:48.579Z,5.25
2022-08-25T07:20:19.244Z,5.47
2022-08-25T07:22:47.331Z,6.72
2022-08-25T07:25:14.685Z,5.70
2022-08-25T07:35:08.376Z,5.07
2022-08-25T07:37:48.789Z,5.80
2022-08-25T07:40:22.875Z,5.43
2022-08-25T07:42:51.972Z,5.53
2022-08-25T07:45:32.292Z,6.25
2022-08-25T07:48:11.296Z,5.47
2022-08-25T07:50:45.688Z,5.75
2022-08-25T07:53:24.580Z,5.45
2022-08-25T07:58:21.762Z,5.55
2022-08-25T08:01:11.332Z,5.70
2022-08-25T08:03:51.000Z,5.43
2022-08-25T08:06:29.312Z,5.47
2022-08-25T08:08:57.777Z,5.30
2022-08-25T08:11:33.321Z,5.82
2022-08-25T08:14:01.582Z,5.70
2022-08-25T08:16:30.249Z,4.90
2022-08-25T08:19:05.431Z,5.57
2022-08-25T08:21:43.934Z,5.30
2022-08-25T08:24:25.032Z,5.40
2022-08-25T08:32:00.250Z,5.20
2022-08-25T08:34:37.247Z,5.35
2022-08-25T08:37:04.889Z,5.35
2022-08-25T08:39:40.641Z,5.13
2022-08-25T08:42:47.084Z,5.10
2022-08-25T08:45:17.457Z,5.07
2022-08-25T08:48:10.437Z,5.15
2022-08-25T08:51:17.537Z,4.95
2022-08-25T08:53:59.848Z,4.60
2022-08-25T08:56:50.653Z,5.05
2022-08-25T08:59:28.885Z,5.55
2022-08-25T09:02:07.734Z,5.10
2022-08-25T09:04:52.899Z,5.45
2022-08-25T09:07:35.295Z,5.15
2022-08-25T09:10:19.611Z,5.57
2022-08-25T09:13:11.260Z,5.07
2022-08-25T09:16:07.251Z,5.07
2022-08-25T09:18:53.870Z,4.90
2022-08-25T09:21:47.129Z,5.10
2022-08-25T09:24:50.436Z,4.97
2022-08-25T09:28:14.930Z,5.18
2022-08-25T09:30:52.849Z,5.05
2022-08-25T09:33:22.630Z,5.50
2022-08-25T09:35:54.930Z,5.00
2022-08-25T09:38:41.917Z,4.68
2022-08-25T09:41:09.155Z,4.90
2022-08-25T09:43:54.968Z,4.80
2022-08-25T09:46:28.261Z,5.38
2022-08-25T09:49:21.537Z,4.80
2022-08-25T09:51:57.809Z,4.68
2022-08-25T09:54:43.964Z,4.70
2022-08-25T09:57:42.837Z,4.70
2022-08-25T10:00:15.065Z,5.55
2022-08-25T10:02:48.453Z,5.35
2022-08-25T10:05:27.586Z,4.25
2022-08-25T10:08:25.322Z,4.38
2022-08-25T10:11:14.715Z,4.95
2022-08-25T10:16:38.134Z,4.00
2022-08-25T10:22:14.848Z,4.47
2022-08-25T10:24:52.559Z,4.32
2022-08-25T10:27:59.946Z,4.03
2022-08-25T10:35:28.687Z,4.03
2022-08-25T10:38:27.286Z,3.70
2022-08-25T10:41:17.640Z,4.22
2022-08-25T10:44:02.915Z,3.95
2022-08-25T10:47:06.248Z,3.80
2022-08-25T10:49:46.074Z,3.83
2022-08-25T10:52:39.353Z,3.63
2022-08-25T10:55:06.353Z,3.78
2022-08-25T10:58:00.121Z,3.90
2022-08-25T11:00:46.563Z,3.70
2022-08-25T11:03:35.145Z,3.70
2022-08-25T11:06:50.367Z,4.15
2022-08-25T11:09:36.482Z,3.95
2022-08-25T11:12:15.014Z,4.00
2022-08-25T11:15:26.391Z,3.70
2022-08-25T11:18:18.421Z,3.88
2022-08-25T11:21:24.716Z,4.10
2022-08-25T11:24:09.262Z,3.90
2022-08-25T11:27:03.765Z,3.90
2022-08-25T11:34:02.998Z,3.45
2022-08-25T11:36:40.916Z,3.90
2022-08-25T11:39:18.653Z,3.75
2022-08-25T11:42:13.822Z,4.30
2022-08-25T11:45:08.111Z,4.05
2022-08-25T11:47:50.492Z,3.90
2022-08-25T11:50:41.602Z,3.80
2022-08-25T11:53:11.569Z,4.45
2022-08-25T11:55:38.798Z,4.00
2022-08-25T11:58:40.671Z,3.95
2022-08-25T12:01:40.294Z,3.83
2022-08-25T12:04:45.175Z,3.80
2022-08-25T12:07:23.886Z,3.50
2022-08-25T12:09:51.449Z,3.67
2022-08-25T12:12:58.361Z,4.00
2022-08-25T12:15:43.708Z,3.92
2022-08-25T12:18:29.794Z,3.90
2022-08-25T12:20:58.618Z,3.42
2022-08-25T12:24:08.368Z,3.80
2022-08-25T12:26:43.199Z,3.80
2022-08-25T12:29:26.932Z,3.90
2022-08-25T12:32:17.485Z,3.90
2022-08-25T12:35:03.099Z,4.13
2022-08-25T12:42:33.433Z,4.10
2022-08-25T12:45:36.255Z,3.83
2022-08-25T12:48:31.776Z,3.78
2022-08-25T12:51:40.311Z,3.45
2022-08-25T12:54:47.688Z,3.55
2022-08-25T12:57:29.622Z,3.70
2022-08-25T13:00:22.943Z,4.30
2022-08-25T13:03:21.881Z,4.97
2022-08-25T13:06:16.474Z,4.68
2022-08-25T13:09:20.716Z,4.70
2022-08-25T13:13:01.058Z,3.95
2022-08-25T13:15:37.718Z,3.67
2022-08-25T13:18:24.312Z,3.40
2022-08-25T13:21:27.433Z,3.55
2022-08-25T13:24:07.873Z,3.70
2022-08-25T13:26:48.167Z,4.00
2022-08-25T13:29:37.379Z,3.40
2022-08-25T13:32:14.418Z,3.70
2022-08-25T13:34:47.076Z,3.33
2022-08-25T13:37:29.513Z,3.95
2022-08-25T13:40:24.558Z,3.30
2022-08-25T13:43:06.475Z,3.80
2022-08-25T13:45:43.809Z,3.53
2022-08-25T13:48:22.988Z,3.05
2022-08-25T13:50:53.277Z,9.27
2022-08-25T13:53:30.488Z,3.95
2022-08-25T13:56:06.329Z,3.30
2022-08-25T13:58:39.655Z,2.78
2022-08-25T14:01:46.347Z,2.78
2022-08-25T14:04:36.420Z,3.30
2022-08-25T14:07:19.653Z,3.40
2022-08-25T14:09:53.971Z,3.40
2022-08-25T14:12:39.604Z,3.28
2022-08-25T14:15:13.681Z,3.20
2022-08-25T14:17:48.184Z,3.10
2022-08-25T14:20:50.706Z,3.10
2022-08-25T14:23:29.902Z,3.22
2022-08-25T14:25:59.650Z,2.85
2022-08-25T14:28:32.503Z,2.78
2022-08-25T14:31:10.596Z,2.97
2022-08-25T14:34:01.000Z,2.70
2022-08-25T14:36:32.750Z,2.50
2022-08-25T14:39:00.628Z,2.83
2022-08-25T14:41:28.828Z,3.10
2022-08-25T14:43:55.864Z,2.50
2022-08-25T14:46:26.522Z,2.80
2022-08-25T14:49:05.153Z,2.60
2022-08-25T14:51:33.810Z,2.30
2022-08-25T14:54:06.391Z,2.60
2022-08-25T14:56:34.383Z,2.75
2022-08-25T14:59:02.020Z,2.60
2022-08-25T15:01:30.043Z,2.53
2022-08-25T15:04:23.647Z,2.80
2022-08-25T15:06:56.563Z,2.80
2022-08-25T15:09:25.701Z,3.25
2022-08-25T15:12:00.528Z,2.60
2022-08-25T15:14:28.423Z,2.70
2022-08-25T15:17:00.618Z,2.85
2022-08-25T15:19:28.544Z,2.60
2022-08-25T15:21:58.099Z,2.90
2022-08-25T15:24:27.822Z,2.42
2022-08-25T15:26:58.630Z,2.50
2022-08-25T15:29:29.811Z,2.83
2022-08-25T15:31:59.122Z,2.72
2022-08-25T15:34:26.323Z,4.90
2022-08-25T15:36:53.619Z,2.70
2022-08-25T15:44:17.411Z,3.47
2022-08-25T15:46:49.544Z,2.40
2022-08-25T15:49:23.168Z,2.53
2022-08-25T15:51:54.642Z,2.50
2022-08-25T15:54:23.194Z,2.63
2022-08-25T15:56:51.013Z,2.33
2022-08-25T15:59:19.440Z,2.60
2022-08-25T16:01:54.030Z,2.50
2022-08-25T16:04:26.587Z,2.58
2022-08-25T16:06:54.228Z,2.60
2022-08-25T16:09:23.506Z,2.15
2022-08-25T16:11:56.889Z,2.40
2022-08-25T16:14:27.694Z,2.53
2022-08-25T16:16:58.343Z,2.85
2022-08-25T16:19:30.248Z,2.53
2022-08-25T16:21:59.095Z,2.60
2022-08-25T16:24:27.534Z,2.50
2022-08-25T16:27:10.974Z,2.70
2022-08-25T16:29:39.898Z,2.47
2022-08-25T16:32:07.942Z,2.50
2022-08-25T16:34:35.662Z,2.80
2022-08-25T16:37:03.441Z,2.65
2022-08-25T16:40:27.879Z,2.40
2022-08-25T16:42:55.403Z,2.55
2022-08-25T16:45:22.472Z,2.70
2022-08-25T16:47:49.916Z,2.60
2022-08-25T16:50:17.293Z,2.58
2022-08-25T16:53:03.144Z,2.72
2022-08-25T16:55:38.869Z,2.95
2022-08-25T16:58:08.042Z,8.15
2022-08-25T17:00:37.790Z,2.92
2022-08-25T17:03:06.222Z,2.75
2022-08-25T17:05:39.578Z,2.63
2022-08-25T17:08:25.095Z,2.60
2022-08-25T17:10:52.740Z,2.67
2022-08-25T17:13:20.623Z,2.58
2022-08-25T17:15:52.510Z,2.67
2022-08-25T17:18:19.696Z,2.65
2022-08-25T17:20:48.785Z,2.63
2022-08-25T17:23:18.528Z,2.70
2022-08-25T17:25:50.289Z,2.80
2022-08-25T17:28:19.259Z,3.05
2022-08-25T17:30:46.712Z,2.95
2022-08-25T17:33:14.389Z,3.00
2022-08-25T17:35:44.360Z,2.95
2022-08-25T17:38:12.993Z,3.10
2022-08-25T17:41:37.606Z,2.97
2022-08-25T17:44:05.406Z,3.30
2022-08-25T17:46:33.160Z,3.22
2022-08-25T17:49:00.249Z,2.85
2022-08-25T17:51:27.293Z,3.40
2022-08-25T17:53:59.175Z,3.10
2022-08-25T17:56:27.812Z,2.90
2022-08-25T17:58:56.352Z,2.88
2022-08-25T18:01:25.644Z,3.20
2022-08-25T18:03:53.055Z,3.42
2022-08-25T18:06:20.876Z,2.90
2022-08-25T18:08:54.476Z,3.05
2022-08-25T18:11:25.976Z,2.72
2022-08-25T18:13:53.935Z,2.90
2022-08-25T18:16:22.584Z,2.90
2022-08-25T18:18:50.203Z,3.17
2022-08-25T18:21:20.575Z,3.33
2022-08-25T18:23:49.755Z,3.17
2022-08-25T18:26:17.153Z,2.90
2022-08-25T18:28:49.035Z,3.22
2022-08-25T18:31:16.035Z,2.78
2022-08-25T18:33:47.015Z,3.45
2022-08-25T18:36:14.483Z,3.10
2022-08-25T18:39:00.362Z,3.20
2022-08-25T18:46:24.630Z,3.03
2022-08-25T18:48:53.309Z,3.15
2022-08-25T18:51:22.293Z,3.08
2022-08-25T18:53:51.154Z,2.75
2022-08-25T18:56:19.252Z,3.40
2022-08-25T18:58:47.662Z,12.45
2022-08-25T19:01:16.367Z,5.00
2022-08-25T19:03:44.465Z,3.47
2022-08-25T19:06:11.592Z,7.50
2022-08-25T19:08:41.948Z,3.80
2022-08-25T19:11:10.230Z,3.35
2022-08-25T19:13:39.196Z,3.58
2022-08-25T19:16:38.466Z,3.50
2022-08-25T19:19:08.787Z,3.60
2022-08-25T19:21:39.724Z,3.40
2022-08-25T19:24:08.796Z,3.40
2022-08-25T19:26:36.721Z,3.90
2022-08-25T19:29:11.490Z,3.60
2022-08-25T19:31:40.836Z,3.45
2022-08-25T19:34:11.203Z,3.83
2022-08-25T19:36:38.549Z,3.70
2022-08-25T19:39:08.348Z,3.90
2022-08-25T19:42:37.195Z,3.92
2022-08-25T19:45:11.406Z,3.40
2022-08-25T19:47:40.197Z,3.70
2022-08-25T19:50:09.278Z,3.55
2022-08-25T19:52:40.422Z,3.72
2022-08-25T19:55:10.717Z,3.70
2022-08-25T19:57:42.946Z,3.80
2022-08-25T20:00:29.312Z,3.90
2022-08-25T20:02:57.817Z,4.03
2022-08-25T20:05:25.241Z,3.88
2022-08-25T20:07:54.139Z,3.83
2022-08-25T20:10:22.429Z,3.80
2022-08-25T20:12:49.483Z,3.78
2022-08-25T20:15:16.907Z,3.63
2022-08-25T20:17:45.176Z,4.10
2022-08-25T20:20:18.839Z,3.97
2022-08-25T20:22:48.601Z,3.72
2022-08-25T20:25:22.310Z,4.13
2022-08-25T20:27:53.787Z,4.15
2022-08-25T20:30:31.890Z,4.28
2022-08-25T20:32:59.854Z,3.90
2022-08-25T20:35:31.729Z,3.65
2022-08-25T20:38:00.615Z,4.50
2022-08-25T20:40:29.972Z,4.05
2022-08-25T20:43:53.192Z,3.78
2022-08-25T20:46:20.517Z,4.30
2022-08-25T20:48:47.736Z,4.00
2022-08-25T20:51:18.730Z,4.30
2022-08-25T20:53:45.957Z,3.85
2022-08-25T20:56:17.956Z,4.00
2022-08-25T20:58:45.288Z,4.90
2022-08-25T21:01:22.966Z,4.50
2022-08-25T21:03:50.996Z,4.65
2022-08-25T21:06:18.302Z,4.13
2022-08-25T21:08:48.143Z,3.90
2022-08-25T21:11:17.844Z,4.07
2022-08-25T21:13:45.996Z,4.15
2022-08-25T21:16:25.306Z,4.15
2022-08-25T21:18:52.537Z,3.97
2022-08-25T21:21:19.704Z,4.15
2022-08-25T21:23:50.305Z,4.15
2022-08-25T21:26:23.360Z,4.40
2022-08-25T21:28:51.692Z,4.05
2022-08-25T21:31:21.241Z,4.50
2022-08-25T21:33:54.893Z,4.57
2022-08-25T21:36:24.797Z,4.20
2022-08-25T21:38:59.717Z,4.32
2022-08-25T21:41:31.577Z,4.20
2022-08-25T21:44:56.439Z,4.03
2022-08-25T21:47:26.512Z,4.10
2022-08-25T21:49:53.701Z,4.50
2022-08-25T21:52:21.431Z,4.40
2022-08-25T21:54:48.685Z,4.47
2022-08-25T21:57:18.043Z,4.18
2022-08-25T21:59:49.875Z,4.43
2022-08-25T22:02:22.414Z,4.85
2022-08-25T22:04:54.164Z,9.20
2022-08-25T22:07:24.725Z,16.60
2022-08-25T22:09:52.571Z,19.27
2022-08-25T22:12:22.899Z,15.55
2022-08-25T22:14:52.128Z,11.45
2022-08-25T22:17:24.112Z,8.82
2022-08-25T22:19:53.599Z,9.35
2022-08-25T22:22:22.165Z,11.90
2022-08-25T22:24:49.329Z,8.88
2022-08-25T22:27:17.979Z,12.60
2022-08-25T22:29:47.617Z,10.45
2022-08-25T22:32:14.846Z,7.43
2022-08-25T22:34:43.667Z,6.68
2022-08-25T22:37:18.105Z,6.10
2022-08-25T22:39:46.230Z,5.07
2022-08-25T22:42:13.329Z,5.28
2022-08-25T22:48:47.839Z,4.35
2022-08-25T22:51:26.253Z,4.20
2022-08-25T22:53:54.554Z,4.25
2022-08-25T22:56:30.013Z,4.00
2022-08-25T22:59:08.792Z,4.60
2022-08-25T23:01:36.601Z,3.97
2022-08-25T23:04:05.657Z,4.05
2022-08-25T23:06:37.067Z,4.30
2022-08-25T23:09:09.376Z,4.22
2022-08-25T23:11:38.798Z,4.78
2022-08-25T23:14:10.395Z,4.68
2022-08-25T23:16:42.855Z,4.18
2022-08-25T23:19:14.713Z,4.38
2022-08-25T23:22:04.419Z,4.05
2022-08-25T23:24:32.081Z,4.20
2022-08-25T23:27:04.985Z,4.25
2022-08-25T23:29:34.355Z,4.47
2022-08-25T23:32:01.942Z,4.07
2022-08-25T23:34:30.163Z,4.07
2022-08-25T23:36:58.192Z,4.30
2022-08-25T23:39:25.674Z,4.20
2022-08-25T23:41:52.875Z,4.32
2022-08-25T23:48:45.437Z,4.28
2022-08-25T23:51:12.809Z,4.10
2022-08-25T23:53:39.958Z,3.85
2022-08-25T23:56:09.393Z,4.05
2022-08-25T23:58:36.586Z,3.97
